Terminal Aerodrome Forecast
Issued by NWS

Home | Current Version | Previous Version | Text Only | Print | Product List | Glossary On
Versions: 1 2 3 4 5 6 7 8 9 10 11 12 13 14 15 16 17
000
FTUS46 KMTR 170029 CCA
TAFMRY
TAF COR
KMRY 170029Z 1700/1724 31015G22KT P6SM SKC
     FM170230 36015G20KT P6SM SKC
     FM170500 09012KT P6SM SKC
     FM171200 04008KT P6SM SKC WS020/05025KT
     FM171630 04005KT P6SM SKC
     FM172100 32007KT P6SM SKC=

USA.gov is the U.S. government's official web portal to all federal, state and local government web resources and services.